Time;durP1;ratioP1;P1;durP2;ratioP2;P2;SDS_P1;SDS_P2;PMS_P1;PMS_P2;Temp;Humidity;BMP_temperature;BMP_pressure;BME280_temperature;BME280_humidity;BME280_pressure;Samples;Min_cycle;Max_cycle;Signal;HPM_P1;HPM_P2
2023/05/25 00:01:42;;;;;;;25.80;23.05;;;;;;;13.56;61.39;100850.88;4951252;28;97586;-80
2023/05/25 00:04:09;;;;;;;28.65;21.90;;;;;;;13.51;61.37;100843.13;4952096;28;101062;-79
2023/05/25 00:06:36;;;;;;;24.00;21.70;;;;;;;13.51;61.62;100845.78;4954479;28;96889;-79
2023/05/25 00:09:01;;;;;;;25.15;22.15;;;;;;;13.47;61.82;100845.97;4955247;28;97285;-79
2023/05/25 00:11:27;;;;;;;23.67;21.50;;;;;;;13.44;61.42;100849.56;4972448;28;97970;-79
2023/05/25 00:13:53;;;;;;;26.40;22.92;;;;;;;13.39;61.75;100858.56;4941189;28;101018;-79
2023/05/25 00:16:18;;;;;;;25.55;22.75;;;;;;;13.20;61.85;100814.38;4958161;28;97520;-80
2023/05/25 00:18:46;;;;;;;25.63;21.95;;;;;;;13.33;62.00;100844.69;4971202;28;96870;-80
2023/05/25 00:21:13;;;;;;;25.27;22.75;;;;;;;13.33;61.97;100846.47;4954510;28;101727;-79
2023/05/25 00:23:38;;;;;;;24.17;21.15;;;;;;;13.22;62.16;100838.91;4951662;28;97854;-80
2023/05/25 00:26:04;;;;;;;24.42;21.85;;;;;;;13.24;62.30;100844.16;4951138;28;97165;-79
2023/05/25 00:28:30;;;;;;;25.60;22.00;;;;;;;13.25;61.96;100848.50;4954900;28;97350;-80
2023/05/25 00:30:55;;;;;;;24.73;21.55;;;;;;;13.16;61.86;100840.94;4934456;28;101536;-80
2023/05/25 00:33:21;;;;;;;23.52;21.25;;;;;;;13.10;61.90;100826.19;4949641;28;101466;-80
2023/05/25 00:35:47;;;;;;;27.83;21.05;;;;;;;13.21;62.08;100853.03;4970342;28;96784;-79
2023/05/25 00:38:17;;;;;;;25.70;22.83;;;;;;;13.17;61.97;100850.53;4955391;28;96915;-79
2023/05/25 00:40:44;;;;;;;26.15;22.08;;;;;;;13.14;62.22;100848.88;4935853;28;101289;-80
2023/05/25 00:43:11;;;;;;;25.10;22.63;;;;;;;13.10;62.19;100848.13;4954465;28;97944;-79
2023/05/25 00:45:37;;;;;;;26.05;22.65;;;;;;;13.13;62.56;100849.81;4937592;28;97371;-80
2023/05/25 00:48:04;;;;;;;26.58;22.50;;;;;;;12.96;62.08;100831.94;4951780;28;97372;-79
2023/05/25 00:50:40;;;;;;;25.90;22.15;;;;;;;13.02;61.94;100849.31;4953177;28;101699;-79
2023/05/25 00:53:07;;;;;;;25.50;22.80;;;;;;;13.02;61.85;100860.72;4953860;28;98335;-80
2023/05/25 00:56:10;;;;;;;25.10;22.45;;;;;;;12.87;62.19;100845.47;4970576;28;97351;-80
2023/05/25 00:58:38;;;;;;;32.00;23.02;;;;;;;13.01;62.00;100871.34;4952909;28;96902;-79
2023/05/25 01:01:10;;;;;;;23.80;21.70;;;;;;;12.96;62.20;100868.00;4953081;28;101659;-79
2023/05/25 01:03:37;;;;;;;28.10;23.67;;;;;;;12.98;62.17;100868.81;4954890;28;98365;-80
2023/05/25 01:06:06;;;;;;;25.02;22.38;;;;;;;12.98;61.96;100869.66;4969892;28;96867;-79
2023/05/25 01:08:33;;;;;;;26.95;23.90;;;;;;;12.87;62.16;100856.84;4970762;28;97248;-79
2023/05/25 01:10:59;;;;;;;25.42;22.38;;;;;;;12.90;61.78;100853.25;4969857;28;97554;-80
2023/05/25 01:13:26;;;;;;;25.10;22.63;;;;;;;12.88;61.64;100852.44;4930948;28;100705;-80
2023/05/25 01:15:52;;;;;;;26.10;22.55;;;;;;;12.88;61.63;100860.34;4937273;28;96766;-80
2023/05/25 01:18:17;;;;;;;25.15;22.77;;;;;;;12.73;61.59;100838.03;4935448;28;97333;-80
2023/05/25 01:21:12;;;;;;;26.38;23.27;;;;;;;12.85;61.55;100865.72;4937960;28;101282;-80
2023/05/25 01:23:43;;;;;;;25.80;22.92;;;;;;;12.81;61.68;100866.75;4946685;28;97428;-80
2023/05/25 01:26:12;;;;;;;26.00;23.38;;;;;;;12.80;61.97;100873.81;4937104;28;96868;-80
2023/05/25 01:28:41;;;;;;;24.88;22.50;;;;;;;12.75;61.99;100873.09;4951399;28;97358;-80
2023/05/25 01:31:07;;;;;;;25.33;22.70;;;;;;;12.71;62.22;100874.09;4953416;28;101624;-80
2023/05/25 01:33:35;;;;;;;32.22;22.85;;;;;;;12.66;61.76;100878.69;4937365;28;101529;-81
2023/05/25 01:36:02;;;;;;;26.02;22.15;;;;;;;12.41;62.13;100834.72;4952878;28;98079;-80
2023/05/25 01:38:28;;;;;;;24.05;21.63;;;;;;;12.63;62.14;100881.41;4937808;28;97265;-80
2023/05/25 01:40:53;;;;;;;22.95;20.73;;;;;;;12.59;62.34;100867.47;4953505;28;101892;-80
2023/05/25 01:43:19;;;;;;;23.38;21.00;;;;;;;12.61;62.38;100893.75;4953858;28;98095;-80
2023/05/25 01:45:45;;;;;;;27.33;22.48;;;;;;;12.58;62.13;100888.59;4950145;28;97354;-79
2023/05/25 01:48:27;;;;;;;24.90;22.35;;;;;;;12.59;61.80;100890.31;4962525;28;97012;-80
2023/05/25 01:51:20;;;;;;;29.65;22.27;;;;;;;12.57;61.52;100890.38;4929621;28;99859;-80
2023/05/25 01:53:52;;;;;;;23.30;20.92;;;;;;;12.46;62.38;100884.59;4933325;28;97903;-80
2023/05/25 01:56:18;;;;;;;28.05;22.38;;;;;;;12.49;62.25;100892.41;4933742;28;97808;-80
2023/05/25 01:58:46;;;;;;;25.25;22.60;;;;;;;12.34;62.10;100866.59;4929573;28;97393;-80
2023/05/25 02:01:13;;;;;;;22.98;20.85;;;;;;;12.16;61.67;100845.22;4927809;28;101618;-79
2023/05/25 02:03:40;;;;;;;27.65;22.80;;;;;;;12.43;62.25;100889.97;4950480;28;97901;-79
2023/05/25 02:06:06;;;;;;;30.48;22.63;;;;;;;12.30;61.97;100865.78;4925295;28;96958;-79
2023/05/25 02:08:33;;;;;;;25.92;23.25;;;;;;;12.43;61.83;100887.34;4930940;28;96963;-80
2023/05/25 02:11:00;;;;;;;26.92;22.02;;;;;;;12.38;61.60;100889.25;4920195;28;101515;-79
2023/05/25 02:13:25;;;;;;;25.10;21.40;;;;;;;12.35;61.81;100894.63;4923348;28;101691;-80
2023/05/25 02:15:51;;;;;;;25.10;22.48;;;;;;;12.37;61.60;100890.19;4926636;28;96788;-80
2023/05/25 02:18:18;;;;;;;25.45;22.48;;;;;;;12.26;61.75;100893.13;4929162;28;97321;-80
2023/05/25 02:20:44;;;;;;;25.88;22.80;;;;;;;12.12;62.12;100875.16;4937611;28;98120;-80
2023/05/25 02:23:10;;;;;;;24.77;22.35;;;;;;;12.26;62.05;100898.41;4906159;28;101593;-79
2023/05/25 02:25:37;;;;;;;26.55;23.77;;;;;;;12.24;62.12;100898.44;4909675;28;97014;-79
2023/05/25 02:28:03;;;;;;;25.17;22.77;;;;;;;12.04;62.04;100878.94;4947656;28;97153;-79
2023/05/25 02:30:28;;;;;;;26.00;22.88;;;;;;;12.16;61.99;100894.34;4931115;28;101396;-79
2023/05/25 02:32:56;;;;;;;24.50;22.05;;;;;;;12.21;62.36;100895.06;4931897;28;101876;-80
2023/05/25 02:35:22;;;;;;;26.42;23.70;;;;;;;12.17;62.15;100891.66;4945484;28;96881;-79
2023/05/25 02:37:47;;;;;;;25.63;22.65;;;;;;;12.15;61.62;100880.31;4921796;28;97538;-79
2023/05/25 02:40:13;;;;;;;26.80;24.00;;;;;;;12.03;62.46;100872.81;4927765;28;100605;-79
2023/05/25 02:42:39;;;;;;;25.83;23.10;;;;;;;12.13;62.31;100895.31;4922912;28;101086;-80
2023/05/25 02:45:09;;;;;;;25.98;23.17;;;;;;;12.09;62.37;100893.66;4926586;28;97325;-80
2023/05/25 02:47:35;;;;;;;25.83;23.23;;;;;;;12.03;62.58;100885.13;4934547;28;97474;-80
2023/05/25 02:50:02;;;;;;;25.73;23.30;;;;;;;12.04;62.65;100899.97;4935303;28;101280;-79
2023/05/25 02:52:29;;;;;;;28.58;22.83;;;;;;;11.95;62.37;100882.69;4939336;28;100451;-79
2023/05/25 02:54:55;;;;;;;26.25;23.58;;;;;;;11.99;62.19;100876.47;4938027;28;97311;-79
2023/05/25 02:57:28;;;;;;;30.23;23.20;;;;;;;11.96;62.42;100873.94;4941894;28;97653;-79
2023/05/25 02:59:55;;;;;;;29.75;23.50;;;;;;;11.96;62.25;100880.03;4939088;28;100823;-79
2023/05/25 03:02:24;;;;;;;26.50;23.73;;;;;;;11.96;62.26;100887.94;4956405;28;100983;-79
2023/05/25 03:04:52;;;;;;;31.65;23.48;;;;;;;11.99;62.01;100902.78;4959448;28;97298;-79
2023/05/25 03:07:19;;;;;;;27.13;24.42;;;;;;;11.93;62.76;100895.94;4959509;28;96865;-79
2023/05/25 03:09:45;;;;;;;31.35;23.45;;;;;;;11.93;62.32;100893.28;4943217;28;100345;-79
2023/05/25 03:12:11;;;;;;;27.10;24.23;;;;;;;11.93;62.49;100887.19;4941841;28;101288;-79
2023/05/25 03:14:36;;;;;;;26.20;23.67;;;;;;;11.98;62.60;100899.28;4940794;28;97167;-79
2023/05/25 03:17:03;;;;;;;28.35;24.02;;;;;;;12.02;62.29;100899.19;4942053;28;97218;-79
2023/05/25 03:19:31;;;;;;;26.58;23.02;;;;;;;12.03;62.25;100900.91;4959466;28;98198;-79
2023/05/25 03:21:58;;;;;;;26.00;23.40;;;;;;;11.91;62.76;100883.72;4942347;28;101842;-80
2023/05/25 03:24:23;;;;;;;29.20;23.42;;;;;;;12.16;62.80;100925.94;4961386;28;98580;-79
2023/05/25 03:26:49;;;;;;;27.67;23.10;;;;;;;12.10;62.70;100913.84;4942138;28;97388;-80
2023/05/25 03:29:16;;;;;;;25.13;22.77;;;;;;;12.20;62.49;100928.41;4971826;28;102176;-79
2023/05/25 03:31:41;;;;;;;26.20;23.35;;;;;;;12.27;62.54;100933.47;4975087;28;101175;-79
2023/05/25 03:34:07;;;;;;;24.63;22.52;;;;;;;12.28;62.45;100937.84;4939477;28;96709;-80
2023/05/25 03:36:36;;;;;;;25.92;22.80;;;;;;;12.32;62.23;100939.47;4959112;28;97121;-80
2023/05/25 03:39:02;;;;;;;25.80;23.33;;;;;;;12.30;62.18;100928.13;4958005;28;101141;-80
2023/05/25 03:41:28;;;;;;;27.25;22.98;;;;;;;12.38;62.90;100940.13;4958112;28;101655;-79
2023/05/25 03:43:54;;;;;;;24.35;22.10;;;;;;;12.27;62.62;100923.81;4958259;28;96804;-79
2023/05/25 03:46:19;;;;;;;27.08;22.33;;;;;;;12.34;62.23;100919.22;4964867;28;97779;-79
2023/05/25 03:48:45;;;;;;;26.63;23.80;;;;;;;12.41;62.17;100926.00;4950215;28;101372;-80
2023/05/25 03:51:10;;;;;;;24.70;22.17;;;;;;;12.52;62.83;100934.44;4974108;28;101200;-79
2023/05/25 03:53:36;;;;;;;27.00;23.25;;;;;;;12.59;62.04;100932.44;4947885;28;96855;-79
2023/05/25 03:56:01;;;;;;;25.20;22.92;;;;;;;12.63;61.70;100939.34;4958225;28;97240;-80
2023/05/25 03:58:27;;;;;;;28.58;23.67;;;;;;;12.58;61.82;100926.31;4974392;28;98525;-79
2023/05/25 04:00:53;;;;;;;26.67;23.63;;;;;;;12.69;61.61;100926.84;4962053;28;100912;-80
2023/05/25 04:03:19;;;;;;;25.70;22.75;;;;;;;12.74;62.02;100939.88;4972018;28;97343;-80
2023/05/25 04:05:44;;;;;;;25.35;22.95;;;;;;;12.85;61.43;100939.50;4955961;28;97495;-80
2023/05/25 04:08:16;;;;;;;26.08;23.15;;;;;;;12.86;61.14;100938.59;4971393;28;101890;-80
2023/05/25 04:10:43;;;;;;;25.63;23.02;;;;;;;12.99;61.08;100944.31;4942639;28;101071;-80
2023/05/25 04:13:09;;;;;;;27.10;24.13;;;;;;;13.04;60.91;100945.88;4957659;28;96922;-80
2023/05/25 04:15:35;;;;;;;25.40;22.80;;;;;;;13.06;61.17;100941.41;4957359;28;97558;-79
2023/05/25 04:18:06;;;;;;;25.52;22.92;;;;;;;13.11;61.02;100951.78;4958030;28;101884;-80
2023/05/25 04:20:31;;;;;;;24.17;22.05;;;;;;;13.15;61.00;100956.06;4958254;28;101278;-80
2023/05/25 04:22:57;;;;;;;25.63;23.20;;;;;;;13.19;60.51;100948.88;4941509;28;97176;-80
2023/05/25 04:25:22;;;;;;;27.52;23.55;;;;;;;13.08;60.81;100923.75;4957990;28;96877;-80
2023/05/25 04:27:48;;;;;;;34.28;26.20;;;;;;;13.33;60.69;100959.84;4956537;28;101304;-79
2023/05/25 04:30:23;;;;;;;28.55;25.02;;;;;;;13.04;60.37;100911.59;4943335;28;99653;-80
2023/05/25 04:33:05;;;;;;;28.33;23.27;;;;;;;13.21;61.42;100958.47;4962368;28;97539;-80
2023/05/25 04:35:36;;;;;;;;;;;;;;;13.15;61.29;100961.31;4958993;28;96947;-79
2023/05/25 04:38:03;;;;;;;31.58;24.42;;;;;;;13.09;61.13;100962.38;4957041;28;100914;-79
2023/05/25 04:40:31;;;;;;;27.30;24.70;;;;;;;13.11;61.28;100963.19;4938846;28;101303;-80
2023/05/25 04:42:58;;;;;;;26.30;23.45;;;;;;;13.13;61.24;100956.09;4952923;28;97301;-80
2023/05/25 04:45:24;;;;;;;27.08;23.15;;;;;;;13.17;61.10;100953.34;4954921;28;96971;-80
2023/05/25 04:47:50;;;;;;;27.08;23.75;;;;;;;13.16;61.22;100970.94;4956314;28;101361;-80
2023/05/25 04:50:16;;;;;;;26.58;23.88;;;;;;;13.20;61.38;100962.00;4953468;28;101322;-80
2023/05/25 04:52:41;;;;;;;25.00;21.50;;;;;;;13.12;61.04;100950.88;4929216;28;97250;-80
2023/05/25 04:55:09;;;;;;;24.05;21.63;;;;;;;13.21;61.00;100970.78;4967612;28;97303;-79
2023/05/25 04:57:37;;;;;;;26.33;22.08;;;;;;;13.22;60.95;100959.31;4950615;28;100745;-80
2023/05/25 05:00:04;;;;;;;29.48;25.02;;;;;;;13.20;60.89;100971.69;4953494;28;101114;-82
2023/05/25 05:02:30;;;;;;;28.25;23.63;;;;;;;13.27;60.84;100968.84;4949485;28;98637;-80
2023/05/25 05:04:56;;;;;;;25.73;23.05;;;;;;;13.30;60.84;100965.22;4930284;28;97582;-80
2023/05/25 05:07:22;;;;;;;28.75;23.85;;;;;;;13.33;61.03;100973.03;4952255;28;102749;-82
2023/05/25 05:09:48;;;;;;;26.58;22.73;;;;;;;13.22;60.49;100961.97;4955403;28;101738;-81
2023/05/25 05:12:14;;;;;;;25.95;23.45;;;;;;;13.09;60.99;100933.41;4953024;28;96793;-81
2023/05/25 05:14:46;;;;;;;;;;;;;;;13.33;61.17;100976.53;4937979;28;97277;-81
2023/05/25 05:17:11;;;;;;;29.25;23.75;;;;;;;13.39;60.99;100977.22;4941947;28;101335;-80
2023/05/25 05:19:37;;;;;;;26.90;23.70;;;;;;;13.31;60.58;100957.25;4934040;28;101546;-80
2023/05/25 05:22:07;;;;;;;25.27;22.80;;;;;;;13.47;60.43;100975.19;4956839;28;97500;-79
2023/05/25 05:24:33;;;;;;;24.52;22.00;;;;;;;13.51;60.38;100976.78;4951045;28;97370;-80
2023/05/25 05:26:58;;;;;;;26.77;23.92;;;;;;;13.50;60.54;100985.63;4939953;28;101303;-80
2023/05/25 05:29:28;;;;;;;27.05;24.35;;;;;;;13.46;60.40;100963.75;4971589;28;100976;-80
2023/05/25 05:31:54;;;;;;;26.98;24.33;;;;;;;13.56;60.93;100980.13;4958026;28;96883;-87
2023/05/25 05:34:20;;;;;;;24.58;22.17;;;;;;;13.59;60.64;100980.03;4939129;28;96974;-88
2023/05/25 05:36:45;;;;;;;27.35;24.10;;;;;;;13.64;60.54;100978.06;4946692;28;101648;-87
2023/05/25 05:39:12;;;;;;;28.80;25.52;;;;;;;13.76;60.55;100984.69;4960407;28;100975;-87
2023/05/25 05:41:38;;;;;;;25.50;23.00;;;;;;;13.84;60.26;100993.16;4964805;28;97581;-78
2023/05/25 05:44:04;;;;;;;26.80;22.98;;;;;;;13.82;60.42;100993.22;4929343;28;97137;-79
2023/05/25 05:46:29;;;;;;;27.85;24.25;;;;;;;13.79;60.00;100969.59;4968085;28;98508;-79
2023/05/25 05:48:55;;;;;;;29.23;24.65;;;;;;;13.97;59.67;100986.53;4955026;28;101294;-80
2023/05/25 05:51:21;;;;;;;26.80;24.15;;;;;;;13.99;60.31;100982.06;4953700;28;97002;-79
2023/05/25 05:53:47;;;;;;;27.05;23.13;;;;;;;14.10;59.60;100983.41;4955460;28;97036;-79
2023/05/25 05:56:16;;;;;;;25.27;22.58;;;;;;;14.23;59.55;100990.81;4972067;28;100087;-78
2023/05/25 05:58:42;;;;;;;24.85;22.40;;;;;;;14.21;59.20;100995.28;4968801;28;102636;-77
2023/05/25 06:01:08;;;;;;;28.73;21.67;;;;;;;14.23;59.51;100985.53;4970259;28;96769;-77
2023/05/25 06:03:33;;;;;;;24.05;21.00;;;;;;;14.26;59.67;100982.75;4961089;28;96947;-79
2023/05/25 06:05:59;;;;;;;26.17;23.05;;;;;;;14.30;59.00;100975.56;4953830;28;100750;-78
2023/05/25 06:08:25;;;;;;;25.63;23.10;;;;;;;14.38;59.30;100986.72;4952771;28;100858;-77
2023/05/25 06:10:50;;;;;;;24.40;21.73;;;;;;;14.58;58.76;100980.66;4937729;28;98183;-80
2023/05/25 06:13:16;;;;;;;20.52;18.42;;;;;;;14.78;58.38;100990.44;4946723;28;97445;-78
2023/05/25 06:15:42;;;;;;;20.15;17.30;;;;;;;14.60;58.14;100943.59;4963402;28;101420;-79
2023/05/25 06:18:12;;;;;;;23.60;18.17;;;;;;;14.79;57.91;100962.22;4940358;28;100968;-79
2023/05/25 06:20:38;;;;;;;20.30;17.38;;;;;;;15.06;57.54;100982.19;4949345;28;97177;-78
2023/05/25 06:23:03;;;;;;;20.05;17.00;;;;;;;15.21;57.91;100990.41;4945080;28;97665;-78
2023/05/25 06:25:29;;;;;;;21.30;17.40;;;;;;;15.08;57.92;100958.34;4948500;28;99461;-82
2023/05/25 06:27:55;;;;;;;19.90;16.55;;;;;;;15.26;57.71;100994.56;4958707;28;101246;-79
2023/05/25 06:30:21;;;;;;;28.55;18.88;;;;;;;15.30;57.78;100993.53;4959868;28;96779;-81
2023/05/25 06:32:46;;;;;;;19.58;17.55;;;;;;;15.29;57.54;100998.88;4968306;28;96971;-79
2023/05/25 06:35:18;;;;;;;22.10;18.27;;;;;;;15.31;57.94;100994.41;4935919;28;101709;-81
2023/05/25 06:37:48;;;;;;;25.00;17.50;;;;;;;15.38;58.31;100993.19;4955757;28;101280;-81
2023/05/25 06:40:14;;;;;;;19.33;17.55;;;;;;;15.51;58.38;100997.03;4954642;28;97266;-80
2023/05/25 06:42:41;;;;;;;19.42;17.08;;;;;;;15.54;58.00;100996.91;4939283;28;98121;-80
2023/05/25 06:45:25;;;;;;;22.95;18.13;;;;;;;15.69;57.79;101000.69;4954291;28;99761;-79
2023/05/25 06:47:51;;;;;;;17.63;15.82;;;;;;;15.60;57.92;100978.09;4951446;28;100903;-79
2023/05/25 06:50:17;;;;;;;20.58;17.17;;;;;;;15.63;57.76;100987.69;4931967;28;96821;-80
2023/05/25 06:52:42;;;;;;;20.92;17.55;;;;;;;15.77;57.65;101006.50;4952913;28;97821;-80
2023/05/25 06:55:08;;;;;;;21.67;17.70;;;;;;;15.77;57.66;100997.69;4950426;28;97671;-79
2023/05/25 06:57:33;;;;;;;20.48;18.38;;;;;;;15.94;57.33;101003.09;4950969;28;101060;-80
2023/05/25 06:59:59;;;;;;;18.67;16.85;;;;;;;16.02;57.02;100995.63;4968319;28;97061;-81
2023/05/25 07:02:25;;;;;;;23.63;17.92;;;;;;;16.13;56.89;100984.56;4936027;28;97391;-79
2023/05/25 07:04:50;;;;;;;20.75;18.00;;;;;;;16.24;56.84;100971.66;4939174;28;101180;-78
2023/05/25 07:07:16;;;;;;;47.30;19.33;;;;;;;16.23;56.58;100953.19;4948303;28;97321;-79
2023/05/25 07:09:41;;;;;;;20.77;18.65;;;;;;;16.41;56.66;100981.47;4951976;28;96791;-78
2023/05/25 07:12:08;;;;;;;21.38;16.88;;;;;;;16.40;56.43;100968.28;4951914;28;97173;-78
2023/05/25 07:14:34;;;;;;;19.88;16.95;;;;;;;16.50;56.39;100977.53;4950428;28;100925;-77
2023/05/25 07:17:00;;;;;;;23.02;18.58;;;;;;;16.59;56.16;100986.81;4934419;28;100971;-76
2023/05/25 07:19:44;;;;;;;22.42;18.02;;;;;;;16.65;56.57;100982.06;4967373;28;97280;-76
2023/05/25 07:22:09;;;;;;;22.45;17.95;;;;;;;16.56;56.85;100974.56;4967969;28;98435;-76
2023/05/25 07:24:35;;;;;;;24.58;16.65;;;;;;;16.62;56.85;100981.38;4938938;28;98199;-81
2023/05/25 07:27:02;;;;;;;28.42;18.73;;;;;;;16.63;57.46;100989.22;4945239;28;97617;-79
2023/05/25 07:29:27;;;;;;;20.08;16.70;;;;;;;16.67;57.03;100993.47;4951333;28;97341;-81
2023/05/25 07:31:53;;;;;;;22.88;16.23;;;;;;;16.73;56.89;100993.16;4932605;28;97452;-81
2023/05/25 07:34:19;;;;;;;19.80;17.70;;;;;;;16.58;56.93;100972.72;4943857;28;98505;-82
2023/05/25 07:36:45;;;;;;;18.10;15.25;;;;;;;16.76;57.01;100992.19;4928128;28;99268;-82
2023/05/25 07:39:11;;;;;;;19.23;17.08;;;;;;;16.64;56.75;100966.22;4947154;28;97142;-76
2023/05/25 07:41:37;;;;;;;19.63;17.02;;;;;;;16.75;56.66;100988.66;4950119;28;96950;-76
2023/05/25 07:44:03;;;;;;;18.63;11.95;;;;;;;16.76;56.67;100978.94;4948323;28;101303;-79
2023/05/25 07:46:28;;;;;;;17.00;7.20;;;;;;;16.91;56.93;100987.91;4933112;28;101110;-79
2023/05/25 07:48:55;;;;;;;18.90;7.15;;;;;;;16.96;56.69;100989.41;4956727;28;96924;-77
2023/05/25 07:51:22;;;;;;;14.00;6.75;;;;;;;16.96;56.70;100999.16;4952221;28;97262;-76
2023/05/25 07:53:48;;;;;;;14.63;6.68;;;;;;;16.95;56.87;100992.97;4953212;28;101667;-77
2023/05/25 07:56:14;;;;;;;15.15;6.95;;;;;;;17.01;56.65;100999.78;4968369;28;98520;-76
2023/05/25 07:58:39;;;;;;;19.13;6.70;;;;;;;16.94;57.00;100988.63;4947505;28;97176;-76
2023/05/25 08:01:05;;;;;;;28.77;7.75;;;;;;;17.06;56.95;100997.75;4938196;28;98260;-76
2023/05/25 08:03:30;;;;;;;20.52;7.07;;;;;;;17.16;56.97;101000.78;4952036;28;101347;-76
2023/05/25 08:05:56;;;;;;;21.52;7.30;;;;;;;17.24;57.10;100998.59;4956733;28;98595;-76
2023/05/25 08:08:23;;;;;;;20.38;6.55;;;;;;;17.25;57.07;100988.84;4942359;28;97528;-76
2023/05/25 08:10:49;;;;;;;18.08;6.82;;;;;;;17.39;56.49;101005.81;4931481;28;97379;-76
2023/05/25 08:13:15;;;;;;;19.95;7.05;;;;;;;17.44;56.81;101013.50;4951442;28;97507;-76
2023/05/25 08:15:40;;;;;;;24.42;6.72;;;;;;;17.47;56.42;101004.53;4950990;28;101501;-76
2023/05/25 08:18:06;;;;;;;12.55;6.32;;;;;;;17.55;56.72;101000.53;4970559;28;96733;-76
2023/05/25 08:20:31;;;;;;;17.10;6.78;;;;;;;17.64;56.07;100996.53;4955477;28;96926;-76
2023/05/25 08:22:58;;;;;;;16.88;6.72;;;;;;;17.70;55.67;100992.72;4930561;28;101300;-76
2023/05/25 08:25:23;;;;;;;15.32;5.80;;;;;;;17.76;55.83;100993.22;4937080;28;101337;-81
2023/05/25 08:27:49;;;;;;;11.65;6.40;;;;;;;17.60;55.51;100960.50;4954652;28;96840;-78
2023/05/25 08:30:14;;;;;;;17.85;6.07;;;;;;;17.63;55.49;100957.69;4953795;28;97028;-75
2023/05/25 08:32:40;;;;;;;19.35;7.18;;;;;;;17.86;55.58;100993.66;4953650;28;101757;-76
2023/05/25 08:35:06;;;;;;;13.52;5.93;;;;;;;17.90;55.17;100989.03;4953880;28;98110;-77
2023/05/25 08:37:32;;;;;;;13.05;6.57;;;;;;;17.84;55.64;100995.53;4969113;28;97095;-76
2023/05/25 08:39:59;;;;;;;17.63;6.45;;;;;;;17.96;55.60;101002.81;4971843;28;96844;-75
2023/05/25 08:42:25;;;;;;;15.43;6.15;;;;;;;17.97;55.16;100995.72;4953171;28;101351;-73
2023/05/25 08:44:51;;;;;;;14.88;6.15;;;;;;;17.98;55.11;101000.09;4950999;28;97313;-73
2023/05/25 08:47:16;;;;;;;14.82;5.65;;;;;;;18.06;54.97;100998.75;4956278;28;97178;-73
2023/05/25 08:49:43;;;;;;;14.02;5.30;;;;;;;18.09;55.22;100992.38;4949126;28;97299;-74
2023/05/25 08:52:12;;;;;;;13.90;5.28;;;;;;;18.05;54.96;100974.91;4946739;28;100214;-73
2023/05/25 08:54:38;;;;;;;11.68;6.20;;;;;;;18.06;54.50;100974.84;4969040;28;97667;-81
2023/05/25 08:57:22;;;;;;;13.50;5.85;;;;;;;18.32;54.31;101001.75;4970216;28;96993;-74
2023/05/25 09:00:09;;;;;;;13.30;5.47;;;;;;;18.42;54.42;101004.75;4962526;28;96785;-74
2023/05/25 09:02:39;;;;;;;11.35;5.75;;;;;;;18.35;54.25;100987.44;4960280;28;98667;-75
2023/05/25 09:05:06;;;;;;;13.63;6.13;;;;;;;18.46;54.30;101003.63;4967159;28;101477;-74
2023/05/25 09:07:31;;;;;;;21.17;5.75;;;;;;;18.43;53.66;100995.84;4968692;28;97215;-74
2023/05/25 09:09:57;;;;;;;12.77;5.85;;;;;;;18.54;53.93;101012.03;4970407;28;97005;-74
2023/05/25 09:12:23;;;;;;;15.77;5.68;;;;;;;18.58;54.00;101012.72;4944131;28;100865;-74
2023/05/25 09:14:49;;;;;;;14.18;5.72;;;;;;;18.59;54.35;101002.00;4950106;28;100734;-73
2023/05/25 09:17:16;;;;;;;16.10;6.35;;;;;;;18.72;53.99;101016.31;4932435;28;97909;-75
2023/05/25 09:19:42;;;;;;;13.20;6.20;;;;;;;18.84;53.94;101012.13;4938230;28;97639;-75
2023/05/25 09:22:09;;;;;;;12.82;6.47;;;;;;;18.92;53.85;101007.22;4952813;28;98479;-75
2023/05/25 09:24:35;;;;;;;16.00;6.90;;;;;;;18.97;53.46;101018.47;4952892;28;101105;-74
2023/05/25 09:27:02;;;;;;;14.15;6.40;;;;;;;19.00;53.60;101020.09;4947350;28;97140;-75
2023/05/25 09:29:28;;;;;;;18.02;6.65;;;;;;;19.01;53.51;101016.47;4951093;28;96977;-74
2023/05/25 09:31:53;;;;;;;19.45;7.03;;;;;;;19.03;53.17;101017.25;4963161;28;97531;-75
2023/05/25 09:34:19;;;;;;;15.18;5.90;;;;;;;18.85;53.40;100994.34;4952903;28;101529;-74
2023/05/25 09:36:44;;;;;;;16.30;6.88;;;;;;;18.99;53.22;101002.38;4956513;28;96912;-75
2023/05/25 09:39:11;;;;;;;15.73;6.07;;;;;;;19.00;52.56;101012.09;4964299;28;97254;-75
2023/05/25 09:41:37;;;;;;;13.77;6.13;;;;;;;19.22;52.54;101009.03;4950908;28;101294;-75
2023/05/25 09:44:04;;;;;;;14.25;5.97;;;;;;;19.39;52.24;101005.34;4942088;28;100966;-75
2023/05/25 09:46:31;;;;;;;19.58;6.45;;;;;;;19.44;52.21;100985.50;4966621;28;96898;-75
2023/05/25 09:48:58;;;;;;;11.15;6.30;;;;;;;19.61;51.91;101010.25;4946190;28;97002;-75
2023/05/25 09:51:25;;;;;;;15.38;5.65;;;;;;;19.74;51.62;101021.03;4962932;28;98630;-75
2023/05/25 09:53:51;;;;;;;11.48;5.78;;;;;;;19.92;51.25;101009.22;4934095;28;100965;-75
2023/05/25 09:56:16;;;;;;;16.40;5.65;;;;;;;20.01;51.57;101011.34;4947789;28;97061;-75
2023/05/25 09:58:42;;;;;;;7.93;5.40;;;;;;;20.21;50.75;101001.22;4946882;28;97651;-75
2023/05/25 10:01:08;;;;;;;8.65;5.43;;;;;;;20.42;49.97;101007.88;4968843;28;100949;-75
2023/05/25 10:03:33;;;;;;;12.93;5.65;;;;;;;20.52;49.09;100998.34;4951775;28;97902;-73
2023/05/25 10:05:59;;;;;;;10.80;5.45;;;;;;;20.40;49.01;101007.09;4950834;28;96930;-79
2023/05/25 10:08:26;;;;;;;15.52;5.43;;;;;;;20.37;49.90;101014.44;4965016;28;97355;-79
2023/05/25 10:10:51;;;;;;;10.20;5.80;;;;;;;20.38;49.79;101016.16;4969898;28;99113;-79
2023/05/25 10:13:21;;;;;;;9.18;4.95;;;;;;;20.48;48.96;101014.63;4948156;28;101045;-77
2023/05/25 10:15:51;;;;;;;12.77;5.88;;;;;;;20.92;48.45;101008.22;4933526;28;97096;-78
2023/05/25 10:18:21;;;;;;;12.52;4.75;;;;;;;21.53;47.66;100995.22;4935937;28;97373;-77
2023/05/25 10:20:49;;;;;;;14.38;4.47;;;;;;;21.96;46.47;100997.53;4968374;28;97707;-79
2023/05/25 10:23:16;;;;;;;6.90;4.07;;;;;;;22.20;45.96;101009.19;4959689;28;97553;-79
2023/05/25 10:25:50;;;;;;;11.10;5.03;;;;;;;22.06;45.82;100999.44;4950909;28;97165;-79
2023/05/25 10:28:23;;;;;;;8.65;4.15;;;;;;;22.52;45.26;101001.50;4955205;28;97244;-78
2023/05/25 10:30:50;;;;;;;9.07;4.40;;;;;;;23.07;43.95;101006.38;4944851;28;99488;-78
2023/05/25 10:33:17;;;;;;;10.73;4.40;;;;;;;23.30;44.32;100984.09;4954015;28;97945;-79
2023/05/25 10:35:43;;;;;;;10.73;4.80;;;;;;;23.79;42.96;100995.50;4948537;28;97450;-78
2023/05/25 10:38:09;;;;;;;8.43;4.32;;;;;;;23.90;42.55;100996.34;4947874;28;97692;-76
2023/05/25 10:40:35;;;;;;;9.90;4.28;;;;;;;24.17;42.24;101003.16;4964508;28;97547;-79
2023/05/25 10:43:01;;;;;;;11.50;4.22;;;;;;;24.16;42.12;100986.22;4963129;28;97340;-79
2023/05/25 10:45:27;;;;;;;12.90;4.63;;;;;;;24.15;42.47;100987.19;4958296;28;97124;-77
2023/05/25 10:47:52;;;;;;;9.40;4.45;;;;;;;24.20;42.55;100978.75;4962690;28;97815;-77
2023/05/25 10:50:19;;;;;;;11.68;4.63;;;;;;;24.52;42.24;100994.97;4966845;28;98566;-77
2023/05/25 10:52:45;;;;;;;11.82;4.75;;;;;;;24.52;41.92;100972.63;4963725;28;100910;-77
2023/05/25 10:55:11;;;;;;;13.68;4.30;;;;;;;24.57;41.84;100986.53;4980878;28;96805;-77
2023/05/25 10:57:36;;;;;;;6.78;4.50;;;;;;;24.30;42.48;100979.72;4949283;28;97369;-74
2023/05/25 11:00:09;;;;;;;10.55;4.38;;;;;;;23.91;42.63;100983.78;4948482;28;98537;-74
2023/05/25 11:02:53;;;;;;;9.32;4.20;;;;;;;23.40;42.43;100947.56;4947864;28;100374;-73
2023/05/25 11:05:25;;;;;;;7.10;4.05;;;;;;;23.71;42.45;100980.03;4956592;28;97334;-74
2023/05/25 11:07:58;;;;;;;6.60;4.35;;;;;;;23.42;42.57;100960.84;4949710;28;97289;-74
2023/05/25 11:10:49;;;;;;;8.25;3.78;;;;;;;23.42;42.77;100959.03;4939773;28;101508;-74